createdAt,value
2022-10-05T00:00:53.297Z,0
2022-10-05T00:01:54.380Z,0
2022-10-05T00:02:55.269Z,0
2022-10-05T00:03:56.299Z,0.06
2022-10-05T00:04:57.430Z,0
2022-10-05T00:05:58.360Z,0
2022-10-05T00:06:59.421Z,0
2022-10-05T00:08:01.322Z,0
2022-10-05T00:09:02.306Z,0
2022-10-05T00:10:03.455Z,0
2022-10-05T00:11:05.254Z,0
2022-10-05T00:12:06.424Z,0
2022-10-05T00:13:08.313Z,0
2022-10-05T00:14:09.272Z,0
2022-10-05T00:15:10.313Z,0
2022-10-05T00:16:11.422Z,0
2022-10-05T00:17:12.292Z,0
2022-10-05T00:18:13.254Z,0
2022-10-05T00:19:14.293Z,0
2022-10-05T00:20:15.335Z,0
2022-10-05T00:21:16.293Z,0
2022-10-05T00:22:17.334Z,0
2022-10-05T00:23:18.336Z,0
2022-10-05T00:24:19.358Z,0
2022-10-05T00:25:20.312Z,0
2022-10-05T00:26:21.333Z,0
2022-10-05T00:27:22.362Z,0
2022-10-05T00:28:23.395Z,0
2022-10-05T00:29:24.341Z,0
2022-10-05T00:30:25.274Z,0
2022-10-05T00:31:26.323Z,0
2022-10-05T00:32:27.313Z,0
2022-10-05T00:33:28.339Z,0
2022-10-05T00:34:29.314Z,0
2022-10-05T00:35:30.301Z,0
2022-10-05T00:36:31.359Z,0
2022-10-05T00:37:32.256Z,0
2022-10-05T00:38:33.341Z,0
2022-10-05T00:39:34.555Z,0
2022-10-05T00:40:36.433Z,0
2022-10-05T00:41:38.381Z,0
2022-10-05T00:42:39.273Z,0
2022-10-05T00:43:40.435Z,0
2022-10-05T00:44:42.452Z,0
2022-10-05T00:45:44.536Z,0
2022-10-05T00:46:46.573Z,0
2022-10-05T00:47:47.333Z,0
2022-10-05T00:48:48.294Z,0
2022-10-05T00:49:49.354Z,0
2022-10-05T00:50:50.354Z,0
2022-10-05T00:51:51.293Z,0
2022-10-05T00:52:52.373Z,0
2022-10-05T00:53:53.332Z,0
2022-10-05T00:54:54.337Z,0
2022-10-05T00:55:55.393Z,0
2022-10-05T00:56:56.314Z,0
2022-10-05T00:57:57.352Z,0
2022-10-05T00:58:58.392Z,0
2022-10-05T00:59:59.356Z,0
2022-10-05T01:03:57.431Z,0
2022-10-05T01:04:59.271Z,0
2022-10-05T01:06:00.293Z,0
2022-10-05T01:07:01.352Z,0
2022-10-05T01:08:02.430Z,0
2022-10-05T01:09:03.313Z,0
2022-10-05T01:10:04.396Z,0
2022-10-05T01:11:05.323Z,0
2022-10-05T01:12:06.352Z,0
2022-10-05T01:13:07.375Z,0
2022-10-05T01:14:08.357Z,0
2022-10-05T01:15:09.415Z,0
2022-10-05T01:16:11.689Z,0
2022-10-05T01:17:13.372Z,0
2022-10-05T01:18:14.374Z,0
2022-10-05T01:19:15.332Z,0
2022-10-05T01:20:16.353Z,0
2022-10-05T01:21:17.434Z,0
2022-10-05T01:22:19.496Z,0
2022-10-05T01:23:24.273Z,0
2022-10-05T01:24:25.355Z,0
2022-10-05T01:25:26.317Z,0
2022-10-05T01:26:27.309Z,0
2022-10-05T01:27:28.352Z,0
2022-10-05T01:28:29.403Z,0
2022-10-05T01:29:30.371Z,0
2022-10-05T01:30:31.331Z,0
2022-10-05T01:31:32.382Z,0
2022-10-05T01:32:34.450Z,0
2022-10-05T01:33:36.391Z,0
2022-10-05T01:34:37.372Z,0
2022-10-05T01:35:38.299Z,0
2022-10-05T01:36:39.391Z,0
2022-10-05T01:37:41.456Z,0
2022-10-05T01:38:43.351Z,0
2022-10-05T01:39:44.471Z,0
2022-10-05T01:40:46.376Z,0
2022-10-05T01:41:47.400Z,0
2022-10-05T01:42:48.407Z,0
2022-10-05T01:43:49.413Z,0
2022-10-05T01:44:50.434Z,0
2022-10-05T01:45:51.451Z,0
2022-10-05T01:46:52.353Z,0
2022-10-05T01:47:53.396Z,0
2022-10-05T01:48:54.382Z,0
2022-10-05T01:49:55.377Z,0
2022-10-05T01:50:56.392Z,0
2022-10-05T01:51:57.373Z,0
2022-10-05T01:52:58.391Z,0
2022-10-05T01:53:59.332Z,0
2022-10-05T01:55:00.351Z,0
2022-10-05T01:56:01.503Z,0.05
2022-10-05T01:57:02.393Z,0
2022-10-05T01:58:03.371Z,0
2022-10-05T01:59:04.353Z,0
2022-10-05T02:00:05.354Z,0
2022-10-05T02:01:06.507Z,0
2022-10-05T02:02:07.424Z,0
2022-10-05T02:03:08.309Z,0
2022-10-05T02:04:09.311Z,0
2022-10-05T02:05:10.554Z,0.08
2022-10-05T02:06:12.354Z,0
2022-10-05T02:07:13.312Z,0
2022-10-05T02:08:14.332Z,0
2022-10-05T02:09:15.372Z,0
2022-10-05T02:10:16.391Z,0.07
2022-10-05T02:11:17.417Z,0.08
2022-10-05T02:12:18.356Z,0
2022-10-05T02:13:19.399Z,0
2022-10-05T02:14:20.371Z,0
2022-10-05T02:15:21.491Z,0
2022-10-05T02:16:23.471Z,0
2022-10-05T02:17:24.351Z,0
2022-10-05T02:18:25.378Z,0
2022-10-05T02:19:26.392Z,0
2022-10-05T02:20:27.391Z,0
2022-10-05T02:21:28.408Z,0
2022-10-05T02:22:29.319Z,0
2022-10-05T02:23:30.412Z,0
2022-10-05T02:24:31.392Z,0
2022-10-05T02:25:32.332Z,0
2022-10-05T02:26:33.395Z,0
2022-10-05T02:27:34.439Z,0
2022-10-05T02:28:35.451Z,0
2022-10-05T02:29:36.371Z,0
2022-10-05T02:30:37.399Z,0
2022-10-05T02:31:38.628Z,0
2022-10-05T02:32:39.433Z,0
2022-10-05T02:33:41.711Z,0
2022-10-05T02:34:43.412Z,0
2022-10-05T02:35:44.414Z,0
2022-10-05T02:36:45.616Z,0.05
2022-10-05T02:37:46.453Z,0
2022-10-05T02:38:47.372Z,0
2022-10-05T02:39:48.441Z,0
2022-10-05T02:40:49.433Z,0
2022-10-05T02:41:50.388Z,0
2022-10-05T02:42:51.392Z,0
2022-10-05T02:43:52.390Z,0
2022-10-05T02:44:53.375Z,0
2022-10-05T02:45:54.557Z,0
2022-10-05T02:46:57.531Z,0
2022-10-05T02:47:58.411Z,0
2022-10-05T02:48:59.455Z,0
2022-10-05T02:50:00.533Z,0
2022-10-05T02:51:02.434Z,0
2022-10-05T02:52:03.435Z,0
2022-10-05T02:53:04.392Z,0.07
2022-10-05T02:54:05.394Z,0
2022-10-05T02:55:06.435Z,0
2022-10-05T02:56:07.432Z,0
2022-10-05T02:57:08.485Z,0
2022-10-05T02:58:09.393Z,0
2022-10-05T02:59:10.391Z,0
2022-10-05T03:00:11.420Z,0
2022-10-05T03:01:12.532Z,0
2022-10-05T03:02:13.479Z,0
2022-10-05T03:03:14.514Z,0
2022-10-05T03:04:16.371Z,0
2022-10-05T03:05:17.415Z,0
2022-10-05T03:06:18.412Z,0
2022-10-05T03:07:19.561Z,0
2022-10-05T03:08:21.539Z,0
2022-10-05T03:09:23.406Z,0
2022-10-05T03:10:24.367Z,0
2022-10-05T03:11:25.492Z,0
2022-10-05T03:12:27.415Z,0.08
2022-10-05T03:13:28.375Z,0.07
2022-10-05T03:14:29.400Z,0
2022-10-05T03:15:30.432Z,0
2022-10-05T03:16:31.607Z,0
2022-10-05T03:17:33.331Z,0
2022-10-05T03:18:34.412Z,0
2022-10-05T03:19:35.491Z,0
2022-10-05T03:20:37.381Z,0
2022-10-05T03:21:38.399Z,0
2022-10-05T03:22:39.410Z,0
2022-10-05T03:23:40.495Z,0
2022-10-05T03:24:42.439Z,0
2022-10-05T03:25:43.354Z,0
2022-10-05T03:26:44.670Z,0
2022-10-05T03:27:45.418Z,0
2022-10-05T03:28:46.454Z,0
2022-10-05T03:29:47.393Z,0
2022-10-05T03:30:48.488Z,0
2022-10-05T03:31:49.354Z,0
2022-10-05T03:32:50.420Z,0
2022-10-05T03:33:51.472Z,0
2022-10-05T03:34:52.392Z,0
2022-10-05T03:35:53.440Z,0
2022-10-05T03:36:54.412Z,0
2022-10-05T03:37:55.563Z,0
2022-10-05T03:38:57.551Z,0.08
2022-10-05T03:39:59.392Z,0
2022-10-05T03:41:00.377Z,0
2022-10-05T03:42:01.438Z,0
2022-10-05T03:43:02.460Z,0
2022-10-05T03:44:03.422Z,0
2022-10-05T03:45:04.413Z,0
2022-10-05T03:46:05.532Z,0
2022-10-05T03:47:07.392Z,0
2022-10-05T03:48:08.435Z,0
2022-10-05T03:49:09.394Z,0.05
2022-10-05T03:50:10.594Z,0.13
2022-10-05T03:51:12.415Z,0.08
2022-10-05T03:52:13.411Z,0
2022-10-05T03:53:14.371Z,0.06
2022-10-05T03:54:15.413Z,0
2022-10-05T03:55:16.393Z,0
2022-10-05T03:56:17.441Z,0
2022-10-05T03:57:18.479Z,0
2022-10-05T03:58:20.663Z,0
2022-10-05T03:59:22.452Z,0
2022-10-05T04:00:23.411Z,0
2022-10-05T04:01:24.524Z,0
2022-10-05T04:02:25.553Z,0
2022-10-05T04:03:27.591Z,0
2022-10-05T04:04:29.452Z,0
2022-10-05T04:05:30.431Z,0
2022-10-05T04:06:31.422Z,0
2022-10-05T04:07:32.498Z,0
2022-10-05T04:08:33.589Z,0
2022-10-05T04:09:35.421Z,0
2022-10-05T04:10:36.414Z,0.1
2022-10-05T04:11:37.433Z,0.11
2022-10-05T04:12:38.411Z,0.08
2022-10-05T04:13:39.468Z,0.14
2022-10-05T04:14:40.379Z,0
2022-10-05T04:15:41.586Z,0
2022-10-05T04:16:43.853Z,0.13
2022-10-05T04:17:44.437Z,0.14
2022-10-05T04:18:45.431Z,0
2022-10-05T04:19:46.452Z,0
2022-10-05T04:20:47.432Z,0.09
2022-10-05T04:21:48.460Z,0
2022-10-05T04:22:49.444Z,0.07
2022-10-05T04:23:50.471Z,0.05
2022-10-05T04:24:51.411Z,0.06
2022-10-05T04:25:52.440Z,0
2022-10-05T04:26:53.439Z,0.07
2022-10-05T04:27:54.474Z,0.07
2022-10-05T04:28:55.455Z,0.06
2022-10-05T04:29:56.433Z,0.05
2022-10-05T04:30:57.554Z,0.12
2022-10-05T04:31:58.411Z,0.05
2022-10-05T04:32:59.473Z,0.09
2022-10-05T04:34:00.453Z,0
2022-10-05T04:35:01.456Z,0
2022-10-05T04:36:02.451Z,0
2022-10-05T04:37:03.451Z,0
2022-10-05T04:38:04.405Z,0.12
2022-10-05T04:39:05.471Z,0.14
2022-10-05T04:40:06.488Z,0.05
2022-10-05T04:41:07.505Z,0
2022-10-05T04:42:08.389Z,0
2022-10-05T04:43:09.454Z,0
2022-10-05T04:44:10.376Z,0.4
2022-10-05T04:45:11.521Z,0.11
2022-10-05T04:46:13.474Z,0.08
2022-10-05T04:47:14.433Z,0
2022-10-05T04:48:15.392Z,0.2
2022-10-05T04:49:16.431Z,0
2022-10-05T04:50:17.493Z,0
2022-10-05T04:51:18.333Z,0.23
2022-10-05T04:52:19.472Z,0
2022-10-05T04:53:20.492Z,0.1
2022-10-05T04:54:21.421Z,0.05
2022-10-05T04:55:22.518Z,0.05
2022-10-05T04:56:23.400Z,0
2022-10-05T04:57:24.498Z,0.22
2022-10-05T04:58:25.474Z,0.17
2022-10-05T04:59:27.647Z,0.09
2022-10-05T05:00:29.565Z,0.34
2022-10-05T05:01:30.535Z,0
2022-10-05T05:02:32.450Z,0.04
2022-10-05T05:03:33.535Z,0.07
2022-10-05T05:04:34.416Z,0.08
2022-10-05T05:05:35.622Z,0.08
2022-10-05T05:06:37.384Z,0.07
2022-10-05T05:07:38.372Z,0
2022-10-05T05:08:39.423Z,0.05
2022-10-05T05:09:40.651Z,0.12
2022-10-05T05:10:42.616Z,0
2022-10-05T05:11:44.512Z,0
2022-10-05T05:12:45.436Z,0
2022-10-05T05:13:46.513Z,0
2022-10-05T05:14:47.453Z,0
2022-10-05T05:15:48.594Z,0
2022-10-05T05:16:49.830Z,0.08
2022-10-05T05:17:51.548Z,0
2022-10-05T05:18:53.612Z,0.1
2022-10-05T05:19:55.492Z,0
2022-10-05T05:20:57.611Z,0.1
2022-10-05T05:21:59.412Z,0.06
2022-10-05T05:23:00.424Z,0
2022-10-05T05:24:01.398Z,0
2022-10-05T05:25:02.438Z,0
2022-10-05T05:26:03.397Z,0
2022-10-05T05:27:04.434Z,0.15
2022-10-05T05:28:05.518Z,0.17
2022-10-05T05:29:06.471Z,0.12
2022-10-05T05:30:07.537Z,0.12
2022-10-05T05:31:08.557Z,0
2022-10-05T05:32:10.472Z,0.06
2022-10-05T05:33:11.492Z,0
2022-10-05T05:34:12.512Z,0
2022-10-05T05:35:13.443Z,0.08
2022-10-05T05:36:14.812Z,0.04
2022-10-05T05:37:15.435Z,0
2022-10-05T05:38:16.459Z,0
2022-10-05T05:39:17.523Z,0
2022-10-05T05:40:18.472Z,0.09
2022-10-05T05:41:19.456Z,0
2022-10-05T05:42:20.462Z,0
2022-10-05T05:43:21.493Z,0
2022-10-05T05:44:22.484Z,0
2022-10-05T05:45:23.483Z,0
2022-10-05T05:46:34.140Z,0
2022-10-05T05:47:25.533Z,0.1
2022-10-05T05:48:26.532Z,0
2022-10-05T05:49:27.433Z,0
2022-10-05T05:50:28.475Z,0
2022-10-05T05:51:29.392Z,0
2022-10-05T05:52:30.419Z,0
2022-10-05T05:53:31.516Z,0
2022-10-05T05:54:32.414Z,0
2022-10-05T05:55:33.585Z,0
2022-10-05T05:56:35.535Z,0
2022-10-05T05:57:36.469Z,0
2022-10-05T05:58:37.596Z,0
2022-10-05T05:59:39.454Z,0
2022-10-05T06:00:40.514Z,0
2022-10-05T06:01:44.429Z,0
2022-10-05T06:02:42.624Z,0
2022-10-05T06:03:43.463Z,0
2022-10-05T06:04:44.534Z,0
2022-10-05T06:05:45.473Z,0
2022-10-05T06:06:46.716Z,0
2022-10-05T06:07:47.451Z,0
2022-10-05T06:08:48.494Z,0
2022-10-05T06:09:49.514Z,0
2022-10-05T06:10:50.475Z,0
2022-10-05T06:11:51.494Z,0
2022-10-05T06:12:52.471Z,0.11
2022-10-05T06:13:53.494Z,0
2022-10-05T06:14:54.514Z,0
2022-10-05T06:15:55.589Z,0
2022-10-05T06:16:56.546Z,0
2022-10-05T06:17:57.434Z,0
2022-10-05T06:18:58.472Z,0
2022-10-05T06:20:04.109Z,0
2022-10-05T06:21:00.492Z,0
2022-10-05T06:22:01.471Z,0
2022-10-05T06:23:02.568Z,0
2022-10-05T06:24:04.472Z,0.19
2022-10-05T06:25:05.591Z,0
2022-10-05T06:26:10.655Z,0.22
2022-10-05T06:27:08.610Z,0.08
2022-10-05T06:28:10.683Z,0
2022-10-05T06:29:12.553Z,0
2022-10-05T06:30:13.520Z,0
2022-10-05T06:31:14.574Z,0
2022-10-05T06:32:15.516Z,0
2022-10-05T06:33:16.480Z,0
2022-10-05T06:34:17.576Z,0
2022-10-05T06:35:18.536Z,0
2022-10-05T06:36:19.452Z,0.17
2022-10-05T06:37:20.501Z,0.13
2022-10-05T06:38:21.680Z,0.07
2022-10-05T06:39:23.511Z,0.05
2022-10-05T06:40:24.519Z,0
2022-10-05T06:41:25.513Z,0
2022-10-05T06:42:26.474Z,0
2022-10-05T06:43:27.472Z,0
2022-10-05T06:44:28.514Z,0
2022-10-05T06:45:29.597Z,0
2022-10-05T06:46:30.546Z,0
2022-10-05T06:47:31.462Z,0
2022-10-05T06:48:32.551Z,0
2022-10-05T06:49:33.594Z,0
2022-10-05T06:50:34.556Z,0
2022-10-05T06:51:35.453Z,0
2022-10-05T06:52:36.518Z,0
2022-10-05T06:53:37.564Z,0
2022-10-05T06:54:38.573Z,0
2022-10-05T06:55:39.511Z,0
2022-10-05T06:56:40.573Z,0
2022-10-05T06:57:41.487Z,0
2022-10-05T06:58:42.554Z,0
2022-10-05T06:59:43.493Z,0
2022-10-05T07:00:44.639Z,0
2022-10-05T07:01:45.875Z,0
2022-10-05T07:02:46.472Z,0
2022-10-05T07:03:47.491Z,0
2022-10-05T07:04:48.517Z,0
2022-10-05T07:05:49.560Z,0
2022-10-05T07:06:50.572Z,0
2022-10-05T07:07:51.556Z,0.23
2022-10-05T07:08:52.649Z,0
2022-10-05T07:09:54.632Z,0
2022-10-05T07:10:56.512Z,0
2022-10-05T07:12:02.366Z,0
2022-10-05T07:12:58.425Z,0
2022-10-05T07:13:59.514Z,0
2022-10-05T07:15:00.520Z,0
2022-10-05T07:16:01.552Z,0
2022-10-05T07:17:02.670Z,0
2022-10-05T07:18:03.557Z,0.17
2022-10-05T07:19:04.553Z,0
2022-10-05T07:20:05.560Z,0
2022-10-05T07:21:06.537Z,0
2022-10-05T07:23:08.533Z,0
2022-10-05T07:24:09.672Z,0
2022-10-05T07:25:11.532Z,0
2022-10-05T07:26:12.473Z,0
2022-10-05T07:27:13.472Z,0.13
2022-10-05T07:28:14.620Z,0.11
2022-10-05T07:29:15.474Z,0
2022-10-05T07:30:16.689Z,0
2022-10-05T07:31:18.811Z,0
2022-10-05T07:32:20.637Z,0.07
2022-10-05T07:33:22.561Z,0.16
2022-10-05T07:34:23.581Z,0.12
2022-10-05T07:35:24.571Z,0
2022-10-05T07:36:25.539Z,0.11
2022-10-05T07:37:26.531Z,0.1
2022-10-05T07:38:27.515Z,0
2022-10-05T07:39:36.840Z,0
2022-10-05T07:40:29.573Z,0
2022-10-05T07:41:30.535Z,0
2022-10-05T07:42:31.495Z,0
2022-10-05T07:43:51.379Z,0.32
2022-10-05T07:44:33.617Z,0
2022-10-05T07:45:34.623Z,0.19
2022-10-05T07:46:35.581Z,0.15
2022-10-05T07:47:36.673Z,0
2022-10-05T07:48:38.454Z,0.15
2022-10-05T07:49:39.574Z,0.23
2022-10-05T07:50:40.553Z,0.22
2022-10-05T07:51:42.487Z,0.54
2022-10-05T07:52:43.552Z,0.1
2022-10-05T07:53:44.532Z,0.15
2022-10-05T07:54:45.515Z,0.25
2022-10-05T07:55:46.554Z,0.11
2022-10-05T07:56:47.782Z,0.39
2022-10-05T07:57:48.535Z,0.4
2022-10-05T07:58:49.573Z,0.29
2022-10-05T07:59:50.576Z,0.27
2022-10-05T08:00:51.611Z,0.31
2022-10-05T08:01:52.628Z,0.14
2022-10-05T08:02:53.615Z,0.32
2022-10-05T08:03:54.641Z,0.39
2022-10-05T08:04:56.532Z,0.2
2022-10-05T08:05:57.594Z,0.59
2022-10-05T08:06:58.552Z,0.44
2022-10-05T08:07:59.535Z,0.25
2022-10-05T08:09:00.551Z,0.09
2022-10-05T08:10:01.552Z,0
2022-10-05T08:11:02.572Z,0.13
2022-10-05T08:12:03.571Z,0.1
2022-10-05T08:13:04.532Z,0.23
2022-10-05T08:14:05.671Z,0.51
2022-10-05T08:15:07.680Z,0.16
2022-10-05T08:16:09.599Z,0.15
2022-10-05T08:17:10.791Z,0.09
2022-10-05T08:18:12.595Z,0.28
2022-10-05T08:19:13.652Z,0.44
2022-10-05T08:20:14.512Z,0.22
2022-10-05T08:21:15.591Z,0
2022-10-05T08:22:16.534Z,0.26
2022-10-05T08:23:17.592Z,0.5
2022-10-05T08:24:18.576Z,0.46
2022-10-05T08:25:19.579Z,0.07
2022-10-05T08:26:20.613Z,0.3
2022-10-05T08:27:21.657Z,0.9
2022-10-05T08:28:23.723Z,0.1
2022-10-05T08:29:25.592Z,0.17
2022-10-05T08:30:26.553Z,0.17
2022-10-05T08:31:27.649Z,0.04
2022-10-05T08:32:28.616Z,0.43
2022-10-05T08:33:29.607Z,0.18
2022-10-05T08:34:30.592Z,0.22
2022-10-05T08:35:31.597Z,0
2022-10-05T08:36:32.603Z,0.17
2022-10-05T08:37:33.500Z,0.29
2022-10-05T08:38:34.593Z,0.05
2022-10-05T08:39:35.539Z,0.46
2022-10-05T08:40:36.674Z,0.59
2022-10-05T08:41:38.688Z,0.08
2022-10-05T08:42:40.535Z,0.79
2022-10-05T08:43:41.554Z,0.71
2022-10-05T08:44:42.552Z,0.24
2022-10-05T08:45:43.755Z,0.61
2022-10-05T08:46:45.612Z,0.36
2022-10-05T08:47:46.548Z,0.86
2022-10-05T08:48:47.659Z,0.59
2022-10-05T08:49:48.532Z,1.25
2022-10-05T08:50:49.575Z,1.81
2022-10-05T08:51:50.621Z,1.94
2022-10-05T08:52:51.633Z,1.74
2022-10-05T08:53:52.652Z,1.41
2022-10-05T08:54:53.535Z,1.54
2022-10-05T08:55:54.594Z,1.59
2022-10-05T08:56:55.594Z,2.02
2022-10-05T08:57:56.607Z,2.48
2022-10-05T08:58:57.571Z,1.52
2022-10-05T08:59:58.646Z,1.45
2022-10-05T09:00:59.617Z,1.79
2022-10-05T09:02:00.632Z,1.77
2022-10-05T09:03:01.665Z,2.43
2022-10-05T09:04:02.711Z,1.81
2022-10-05T09:05:04.631Z,1.72
2022-10-05T09:06:05.572Z,1.66
2022-10-05T09:07:06.675Z,0.98
2022-10-05T09:08:08.692Z,0.3
2022-10-05T09:09:10.672Z,0.73
2022-10-05T09:10:11.568Z,0.94
2022-10-05T09:11:12.651Z,0.98
2022-10-05T09:12:13.659Z,1.4
2022-10-05T09:13:14.641Z,1.85
2022-10-05T09:14:15.670Z,1.38
2022-10-05T09:15:31.559Z,1.02
2022-10-05T09:16:17.690Z,1.55
2022-10-05T09:17:18.593Z,1.24
2022-10-05T09:18:19.632Z,0.95
2022-10-05T09:19:20.696Z,1.21
2022-10-05T09:20:21.672Z,1.55
2022-10-05T09:21:22.631Z,2.2
2022-10-05T09:22:23.591Z,2.33
2022-10-05T09:23:24.612Z,2.57
2022-10-05T09:24:25.544Z,3.63
2022-10-05T09:25:26.693Z,2.17
2022-10-05T09:26:28.592Z,1.61
2022-10-05T09:27:29.591Z,1.84
2022-10-05T09:28:30.678Z,2.28
2022-10-05T09:29:31.597Z,2
2022-10-05T09:30:32.705Z,2.63
2022-10-05T09:31:34.639Z,2.24
2022-10-05T09:32:35.679Z,2.53
2022-10-05T09:33:36.640Z,2.19
2022-10-05T09:34:37.664Z,1.98
2022-10-05T09:35:38.713Z,3.15
2022-10-05T09:36:40.663Z,2.7
2022-10-05T09:37:41.688Z,2.08
2022-10-05T09:38:42.652Z,2.38
2022-10-05T09:39:43.591Z,1.14
2022-10-05T09:40:44.760Z,1.8
2022-10-05T09:41:49.672Z,1.86
2022-10-05T09:42:50.614Z,2.3
2022-10-05T09:43:51.613Z,1.81
2022-10-05T09:44:52.712Z,1.24
2022-10-05T09:45:54.736Z,1.61
2022-10-05T09:46:56.572Z,2.12
2022-10-05T09:47:57.612Z,2.19
2022-10-05T09:48:58.651Z,1.88
2022-10-05T09:49:59.600Z,2.24
2022-10-05T09:51:00.658Z,2.61
2022-10-05T09:52:01.622Z,1.96
2022-10-05T09:53:02.642Z,2.54
2022-10-05T09:54:03.568Z,1.74
2022-10-05T09:55:04.666Z,1.69
2022-10-05T09:56:05.621Z,1.58
2022-10-05T09:57:06.658Z,2.06
2022-10-05T09:58:07.760Z,2.95
2022-10-05T09:59:09.579Z,2.43
2022-10-05T10:00:10.675Z,1.91
2022-10-05T10:01:22.271Z,2.42
2022-10-05T10:02:12.748Z,3.21
2022-10-05T10:03:13.645Z,3.45
2022-10-05T10:04:14.572Z,2.7
2022-10-05T10:05:15.635Z,1.69
2022-10-05T10:06:16.572Z,1.92
2022-10-05T10:07:17.611Z,1.42
2022-10-05T10:08:18.693Z,2.63
2022-10-05T10:09:19.632Z,2.48
2022-10-05T10:10:20.580Z,2.36
2022-10-05T10:11:21.611Z,1.95
2022-10-05T10:12:22.767Z,1.44
2022-10-05T10:13:24.594Z,2.45
2022-10-05T10:14:25.612Z,1.66
2022-10-05T10:15:26.653Z,1.81
2022-10-05T10:16:27.692Z,1.78
2022-10-05T10:17:28.621Z,2.35
2022-10-05T10:18:29.574Z,2.43
2022-10-05T10:19:30.692Z,1.94
2022-10-05T10:20:31.730Z,1.45
2022-10-05T10:21:33.576Z,2.77
2022-10-05T10:22:35.487Z,1.57
2022-10-05T10:23:35.762Z,2
2022-10-05T10:24:37.773Z,1.24
2022-10-05T10:25:39.620Z,1.41
2022-10-05T10:26:40.672Z,1.79
2022-10-05T10:27:41.653Z,1.78
2022-10-05T10:28:42.643Z,1.99
2022-10-05T10:29:43.662Z,1.46
2022-10-05T10:30:45.238Z,1.56
2022-10-05T10:31:46.983Z,2.09
2022-10-05T10:32:48.759Z,1.95
2022-10-05T10:33:50.721Z,2.14
2022-10-05T10:34:52.719Z,1.66
2022-10-05T10:35:54.742Z,1.72
2022-10-05T10:36:55.612Z,2.93
2022-10-05T10:37:56.652Z,2.77
2022-10-05T10:38:57.633Z,2.57
2022-10-05T10:39:58.716Z,2.03
2022-10-05T10:40:59.653Z,2.03
2022-10-05T10:42:00.653Z,1.67
2022-10-05T10:43:01.673Z,2.68
2022-10-05T10:44:02.614Z,2.16
2022-10-05T10:45:03.734Z,2.45
2022-10-05T10:46:05.705Z,2.09
2022-10-05T10:47:06.632Z,1.79
2022-10-05T10:48:07.781Z,2.46
2022-10-05T10:49:09.733Z,2
2022-10-05T10:50:11.651Z,1.85
2022-10-05T10:51:12.733Z,2.15
2022-10-05T10:52:13.594Z,1.85
2022-10-05T10:53:14.672Z,1.07
2022-10-05T10:54:15.651Z,2.1
2022-10-05T10:55:16.673Z,1.78
2022-10-05T10:56:17.692Z,1.8
2022-10-05T10:57:18.652Z,1.79
2022-10-05T10:58:19.744Z,1.07
2022-10-05T10:59:20.712Z,1.39
2022-10-05T11:00:21.692Z,1.83
2022-10-05T11:01:22.765Z,1.28
2022-10-05T11:02:24.783Z,1.5
2022-10-05T11:03:25.752Z,1.62
2022-10-05T11:04:27.609Z,2.51
2022-10-05T11:05:28.625Z,1.56
2022-10-05T11:06:29.707Z,0.53
2022-10-05T11:07:30.721Z,1.08
2022-10-05T11:08:31.653Z,2.41
2022-10-05T11:09:32.703Z,1.14
2022-10-05T11:10:33.634Z,2.53
2022-10-05T11:11:34.732Z,2.75
2022-10-05T11:12:35.632Z,1.89
2022-10-05T11:13:36.652Z,1.56
2022-10-05T11:14:37.782Z,1.16
2022-10-05T11:15:39.729Z,1.88
2022-10-05T11:16:40.721Z,2.18
2022-10-05T11:17:41.600Z,1.65
2022-10-05T11:18:42.627Z,2.44
2022-10-05T11:19:59.459Z,3.23
2022-10-05T11:20:45.940Z,1.77
2022-10-05T11:21:47.846Z,2.85
2022-10-05T11:22:50.195Z,1.53
2022-10-05T11:23:51.672Z,1.28
2022-10-05T11:24:52.885Z,1.31
2022-10-05T11:25:54.792Z,2.05
2022-10-05T11:26:56.733Z,1.21
2022-10-05T11:27:57.821Z,1.36
2022-10-05T11:28:59.715Z,1.07
2022-10-05T11:30:00.655Z,1.95
2022-10-05T11:31:01.680Z,0.41
2022-10-05T11:32:02.672Z,0.47
2022-10-05T11:33:03.732Z,1.34
2022-10-05T11:34:05.632Z,2.1
2022-10-05T11:35:07.214Z,2.09
2022-10-05T11:36:08.725Z,2.59
2022-10-05T11:37:10.305Z,2.26
2022-10-05T11:38:11.712Z,0.99
2022-10-05T11:39:12.677Z,1.23
2022-10-05T11:40:13.955Z,1.69
2022-10-05T11:41:15.692Z,0.74
2022-10-05T11:42:17.112Z,1.09
2022-10-05T11:43:18.793Z,1.29
2022-10-05T11:44:20.724Z,1.25
2022-10-05T11:45:21.760Z,0.99
2022-10-05T11:46:22.842Z,0.22
2022-10-05T11:47:24.695Z,1.14
2022-10-05T11:48:25.648Z,1.02
2022-10-05T11:49:26.651Z,1.25
2022-10-05T11:50:27.693Z,1.5
2022-10-05T11:51:29.105Z,2.67
2022-10-05T11:52:29.666Z,1.71
2022-10-05T11:53:30.881Z,0.6
2022-10-05T11:54:46.848Z,0.3
2022-10-05T11:55:35.114Z,1.08
2022-10-05T11:56:36.637Z,1.62
2022-10-05T11:57:37.614Z,0.79
2022-10-05T11:58:38.675Z,1.1
2022-10-05T11:59:39.611Z,0.7
2022-10-05T12:00:40.971Z,1.15
2022-10-05T12:01:42.761Z,0.74
2022-10-05T12:02:45.324Z,1
2022-10-05T12:03:46.773Z,0.76
2022-10-05T12:04:47.832Z,1.85
2022-10-05T12:05:49.733Z,1.47
2022-10-05T12:06:51.243Z,1.37
2022-10-05T12:07:52.782Z,1.21
2022-10-05T12:08:53.772Z,1.09
2022-10-05T12:09:55.773Z,1.47
2022-10-05T12:10:56.713Z,1.69
2022-10-05T12:11:58.184Z,1.71
2022-10-05T12:12:58.994Z,1.16
2022-10-05T12:14:00.695Z,0.83
2022-10-05T12:15:01.752Z,0.5
2022-10-05T12:16:02.834Z,1.12
2022-10-05T12:17:04.717Z,1
2022-10-05T12:18:05.852Z,1.57
2022-10-05T12:19:07.653Z,1.1
2022-10-05T12:20:08.851Z,1.29
2022-10-05T12:21:10.759Z,0.62
2022-10-05T12:22:11.680Z,0.55
2022-10-05T12:23:12.863Z,0.31
2022-10-05T12:24:13.732Z,0.98
2022-10-05T12:25:14.733Z,1.42
2022-10-05T12:26:15.694Z,0.93
2022-10-05T12:27:16.747Z,0.95
2022-10-05T12:28:18.818Z,0.74
2022-10-05T12:29:20.694Z,1.1
2022-10-05T12:30:21.759Z,0.44
2022-10-05T12:31:22.811Z,0.31
2022-10-05T12:32:23.751Z,0.75
2022-10-05T12:33:24.714Z,0.85
2022-10-05T12:34:25.712Z,0.37
2022-10-05T12:35:43.676Z,0.75
2022-10-05T12:36:31.975Z,0.7
2022-10-05T12:37:28.734Z,1.19
2022-10-05T12:38:29.775Z,0.67
2022-10-05T12:39:30.736Z,0.49
2022-10-05T12:40:31.692Z,0.44
2022-10-05T12:41:33.029Z,0.44
2022-10-05T12:42:36.017Z,0.41
2022-10-05T12:43:34.711Z,0.22
2022-10-05T12:44:35.695Z,0.82
2022-10-05T12:45:36.767Z,1
2022-10-05T12:46:37.709Z,1.58
2022-10-05T12:47:38.699Z,0.4
2022-10-05T12:48:39.814Z,0.54
2022-10-05T12:49:41.774Z,0.58
2022-10-05T12:50:42.667Z,0.96
2022-10-05T12:51:43.653Z,0.87
2022-10-05T12:52:44.633Z,0.9
2022-10-05T12:53:45.736Z,1.21
2022-10-05T12:54:46.707Z,0.97
2022-10-05T12:55:47.704Z,1.16
2022-10-05T12:56:48.687Z,1.03
2022-10-05T12:57:49.759Z,0.71
2022-10-05T12:58:50.833Z,0.97
2022-10-05T12:59:52.772Z,1.18
2022-10-05T13:00:53.836Z,1.39
2022-10-05T13:01:55.785Z,1.9
2022-10-05T13:02:56.767Z,1.83
2022-10-05T13:03:57.687Z,1.52
2022-10-05T13:04:58.772Z,1.16
2022-10-05T13:06:02.575Z,0.99
2022-10-05T13:07:00.732Z,1.8
2022-10-05T13:08:01.833Z,1.76
2022-10-05T13:09:03.864Z,2.23
2022-10-05T13:10:04.721Z,1.46
2022-10-05T13:11:05.733Z,1.04
2022-10-05T13:12:06.713Z,0.85
2022-10-05T13:13:07.746Z,1.37
2022-10-05T13:14:08.614Z,0.6
2022-10-05T13:15:09.831Z,0.69
2022-10-05T13:16:11.929Z,1.43
2022-10-05T13:17:12.734Z,1.77
2022-10-05T13:18:13.866Z,1.35
2022-10-05T13:19:15.851Z,1.37
2022-10-05T13:20:17.732Z,0.93
2022-10-05T13:21:18.759Z,0.99
2022-10-05T13:22:19.858Z,1.75
2022-10-05T13:23:20.773Z,1.71
2022-10-05T13:24:21.816Z,1.07
2022-10-05T13:25:22.849Z,0.65
2022-10-05T13:26:24.745Z,1.51
2022-10-05T13:27:25.913Z,0.48
2022-10-05T13:28:27.781Z,0.81
2022-10-05T13:29:28.837Z,0.88
2022-10-05T13:30:30.914Z,0.95
2022-10-05T13:31:32.775Z,0.72
2022-10-05T13:32:33.793Z,0.94
2022-10-05T13:33:34.733Z,1.3
2022-10-05T13:34:35.914Z,0.75
2022-10-05T13:35:37.818Z,0.97
2022-10-05T13:36:39.778Z,1.14
2022-10-05T13:37:40.736Z,0.68
2022-10-05T13:38:41.776Z,0.99
2022-10-05T13:39:42.847Z,0.69
2022-10-05T13:40:43.759Z,0.74
2022-10-05T13:41:44.919Z,0.98
2022-10-05T13:42:46.757Z,0.93
2022-10-05T13:43:47.715Z,1.56
2022-10-05T13:44:48.756Z,1.93
2022-10-05T13:45:51.280Z,2.13
2022-10-05T13:46:50.849Z,1.96
2022-10-05T13:47:52.777Z,1.62
2022-10-05T13:48:53.715Z,1.45
2022-10-05T13:49:54.756Z,1.75
2022-10-05T13:50:55.756Z,1.03
2022-10-05T13:51:56.833Z,1.34
2022-10-05T13:52:57.850Z,1.63
2022-10-05T13:53:59.936Z,2.14
2022-10-05T13:55:02.050Z,1.16
2022-10-05T13:56:03.921Z,1.86
2022-10-05T13:57:05.740Z,1.29
2022-10-05T13:58:06.775Z,2.3
2022-10-05T13:59:07.776Z,3.07
2022-10-05T14:00:08.875Z,1.8
2022-10-05T14:01:11.081Z,1.91
2022-10-05T14:02:11.883Z,1.41
2022-10-05T14:03:12.837Z,1.76
2022-10-05T14:04:16.596Z,1.66
2022-10-05T14:05:18.716Z,1.65
2022-10-05T14:06:19.705Z,1.69
2022-10-05T14:07:20.857Z,1.33
2022-10-05T14:08:21.814Z,0.95
2022-10-05T14:09:22.836Z,0.97
2022-10-05T14:10:23.819Z,1.16
2022-10-05T14:11:24.699Z,1.19
2022-10-05T14:12:25.758Z,1.05
2022-10-05T14:13:26.849Z,0.55
2022-10-05T14:14:27.724Z,0.47
2022-10-05T14:15:28.767Z,0.43
2022-10-05T14:16:29.883Z,0.44
2022-10-05T14:17:32.849Z,0.69
2022-10-05T14:18:32.771Z,0.91